Time;durP1;ratioP1;P1;durP2;ratioP2;P2;SDS_P1;SDS_P2;PMS_P1;PMS_P2;Temp;Humidity;BMP_temperature;BMP_pressure;BME280_temperature;BME280_humidity;BME280_pressure;Samples;Min_cycle;Max_cycle;Signal;HPM_P1;HPM_P2
2023/05/24 00:00:59;;;;;;;382.33;37.20;;;;;;;16.15;73.64;98432.69;4201128;28;20665;-84
2023/05/24 00:03:05;;;;;;;385.80;36.77;;;;;;;16.15;71.82;98422.16;4200372;28;20651;-84
2023/05/24 00:05:10;;;;;;;433.60;36.90;;;;;;;16.16;73.75;98424.66;4181416;28;21188;-84
2023/05/24 00:07:15;;;;;;;368.03;39.77;;;;;;;16.18;71.17;98416.63;4196009;28;20652;-84
2023/05/24 00:09:18;;;;;;;394.83;45.07;;;;;;;16.16;72.06;98418.53;4182397;28;21266;-84
2023/05/24 00:11:22;;;;;;;421.43;40.27;;;;;;;16.14;72.23;98413.41;4184589;28;20633;-84
2023/05/24 00:13:25;;;;;;;366.93;35.07;;;;;;;16.17;73.17;98422.84;4199442;28;21089;-84
2023/05/24 00:15:29;;;;;;;359.87;36.57;;;;;;;16.20;73.68;98420.78;4196723;28;20743;-84
2023/05/24 00:17:33;;;;;;;364.57;35.67;;;;;;;16.21;74.29;98419.00;4197037;28;20632;-84
2023/05/24 00:19:37;;;;;;;414.23;33.13;;;;;;;16.23;72.06;98420.56;4183235;28;20635;-84
2023/05/24 00:21:41;;;;;;;376.37;51.53;;;;;;;16.09;70.41;98420.88;4185280;28;20629;-84
2023/05/24 00:23:44;;;;;;;360.57;43.23;;;;;;;15.98;72.46;98414.00;4202640;28;21242;-84
2023/05/24 00:25:47;;;;;;;391.23;35.87;;;;;;;15.94;70.83;98410.00;4184532;28;20718;-84
2023/05/24 00:27:50;;;;;;;372.77;40.47;;;;;;;15.93;72.15;98401.25;4196987;28;21437;-84
2023/05/24 00:29:54;;;;;;;444.83;36.43;;;;;;;15.83;70.90;98397.75;4196759;28;20688;-84
2023/05/24 00:31:57;;;;;;;352.53;33.60;;;;;;;15.69;70.48;98397.22;4181975;28;20662;-84
2023/05/24 00:34:00;;;;;;;431.87;41.80;;;;;;;15.64;71.06;98400.25;4203743;28;20735;-84
2023/05/24 00:36:03;;;;;;;423.10;38.27;;;;;;;15.56;72.39;98391.34;4178891;28;21225;-84
2023/05/24 00:38:07;;;;;;;381.17;37.97;;;;;;;15.53;71.65;98388.97;4187282;28;20618;-84
2023/05/24 00:40:11;;;;;;;425.87;45.07;;;;;;;15.49;73.41;98390.16;4195556;28;20627;-84
2023/05/24 00:42:14;;;;;;;360.13;40.07;;;;;;;15.55;71.34;98385.22;4184809;28;20639;-84
2023/05/24 00:44:17;;;;;;;426.90;41.43;;;;;;;15.52;72.02;98389.09;4197405;28;21013;-84
2023/05/24 00:46:22;;;;;;;395.40;40.90;;;;;;;15.45;73.24;98387.91;4177929;28;21056;-84
2023/05/24 00:48:27;;;;;;;392.40;41.37;;;;;;;15.47;73.40;98386.00;4201007;28;20652;-84
2023/05/24 00:50:30;;;;;;;424.80;44.60;;;;;;;15.48;73.46;98387.66;4193628;28;20642;-84
2023/05/24 00:52:34;;;;;;;421.03;45.63;;;;;;;15.44;72.96;98387.09;4175644;28;20627;-84
2023/05/24 00:54:40;;;;;;;367.13;44.30;;;;;;;15.44;74.28;98391.50;4200992;28;20640;-84
2023/05/24 00:56:43;;;;;;;379.93;39.73;;;;;;;15.44;74.86;98391.50;4182362;28;20689;-84
2023/05/24 00:58:49;;;;;;;461.70;40.27;;;;;;;15.47;74.43;98391.25;4198666;28;20625;-84
2023/05/24 01:00:52;;;;;;;389.37;41.80;;;;;;;15.41;74.15;98387.34;4180701;28;20702;-84
2023/05/24 01:02:56;;;;;;;386.43;43.67;;;;;;;15.36;73.25;98384.25;4186305;28;20716;-84
2023/05/24 01:05:00;;;;;;;386.23;40.40;;;;;;;15.38;74.56;98386.75;4193785;28;20622;-84
2023/05/24 01:07:13;;;;;;;385.07;35.87;;;;;;;15.36;72.71;98391.31;4197379;28;20669;-84
2023/05/24 01:09:25;;;;;;;409.80;39.67;;;;;;;15.27;72.66;98384.19;4185917;28;21305;-84
2023/05/24 01:11:40;;;;;;;354.57;37.67;;;;;;;15.23;72.52;98382.75;4195670;28;20632;-84
2023/05/24 01:13:46;;;;;;;391.43;37.50;;;;;;;15.17;74.52;98383.28;4199359;28;20668;-84
2023/05/24 01:16:01;;;;;;;399.67;40.40;;;;;;;15.15;74.52;98391.25;4198039;28;20642;-84
2023/05/24 01:18:10;;;;;;;352.00;45.77;;;;;;;15.16;75.46;98387.66;4200604;28;21453;-84
2023/05/24 01:20:14;;;;;;;381.47;41.07;;;;;;;15.19;75.30;98381.34;4199079;28;21090;-84
2023/05/24 01:22:27;;;;;;;385.83;44.00;;;;;;;15.20;75.02;98383.03;4183615;28;20679;-84
2023/05/24 01:24:32;;;;;;;378.07;42.93;;;;;;;15.19;73.46;98381.34;4181850;28;20635;-85
2023/05/24 01:26:44;;;;;;;422.77;40.47;;;;;;;15.12;74.15;98377.53;4211508;28;20987;-84
2023/05/24 01:28:49;;;;;;;513.63;47.33;;;;;;;15.07;75.02;98379.69;4194648;28;20653;-84
2023/05/24 01:30:52;;;;;;;490.17;49.67;;;;;;;14.99;73.71;98386.53;4199081;28;20657;-84
2023/05/24 01:32:57;;;;;;;460.93;53.20;;;;;;;14.94;75.50;98386.88;4183563;28;20701;-84
2023/05/24 01:35:01;;;;;;;354.80;44.93;;;;;;;14.95;75.56;98383.31;4195612;28;20685;-84
2023/05/24 01:37:05;;;;;;;473.97;44.20;;;;;;;14.97;74.74;98383.19;4182700;28;20638;-84
2023/05/24 01:39:08;;;;;;;389.67;44.73;;;;;;;14.93;75.17;98384.38;4187212;28;21274;-84
2023/05/24 01:41:22;;;;;;;360.23;42.47;;;;;;;14.92;74.39;98383.56;4189584;28;20634;-84
2023/05/24 01:43:32;;;;;;;450.30;44.70;;;;;;;14.91;74.52;98381.88;4204471;28;20714;-84
2023/05/24 01:45:40;;;;;;;389.73;46.10;;;;;;;14.89;74.54;98388.25;4199878;28;20629;-84
2023/05/24 01:47:53;;;;;;;374.60;38.27;;;;;;;14.87;76.28;98380.47;4201678;28;20660;-84
2023/05/24 01:49:59;;;;;;;464.90;46.40;;;;;;;14.88;76.03;98392.63;4209156;28;20638;-84
2023/05/24 01:52:05;;;;;;;394.63;40.30;;;;;;;14.92;76.32;98401.13;4183557;28;20993;-85
2023/05/24 01:54:12;;;;;;;360.63;44.50;;;;;;;14.93;76.64;98397.53;4199774;28;20684;-84
2023/05/24 01:56:16;;;;;;;423.90;38.03;;;;;;;14.91;75.31;98395.03;4195778;28;20741;-84
2023/05/24 01:58:21;;;;;;;359.70;42.33;;;;;;;14.92;76.79;98409.84;4181365;28;21460;-84
2023/05/24 02:00:24;;;;;;;485.93;40.60;;;;;;;14.89;76.56;98407.44;4192401;28;21096;-84
2023/05/24 02:02:30;;;;;;;370.47;41.20;;;;;;;14.88;76.81;98411.03;4198825;28;20632;-84
2023/05/24 02:04:33;;;;;;;379.00;48.50;;;;;;;14.87;77.01;98412.00;4201575;28;20680;-84
2023/05/24 02:06:36;;;;;;;380.83;39.57;;;;;;;14.88;76.51;98408.41;4182224;28;20711;-84
2023/05/24 02:08:43;;;;;;;393.70;47.87;;;;;;;14.87;75.96;98406.75;4204983;28;21278;-84
2023/05/24 02:10:46;;;;;;;356.53;44.37;;;;;;;14.86;76.17;98415.56;4201663;28;21247;-84
2023/05/24 02:12:49;;;;;;;468.97;44.17;;;;;;;14.81;75.56;98404.63;4194754;28;21078;-84
2023/05/24 02:14:53;;;;;;;419.50;46.87;;;;;;;14.79;76.25;98411.78;4204108;28;20688;-84
2023/05/24 02:16:57;;;;;;;393.97;47.20;;;;;;;14.80;77.16;98416.06;4200440;28;20634;-84
2023/05/24 02:19:02;;;;;;;392.93;41.70;;;;;;;14.80;78.50;98420.50;4204486;28;20629;-84
2023/05/24 02:21:05;;;;;;;393.97;44.33;;;;;;;14.81;76.61;98414.28;4184177;28;20650;-84
2023/05/24 02:23:09;;;;;;;412.13;39.17;;;;;;;14.81;77.89;98417.75;4196416;28;20642;-84
2023/05/24 02:25:12;;;;;;;409.73;50.00;;;;;;;14.80;77.58;98417.88;4184401;28;20631;-84
2023/05/24 02:27:15;;;;;;;417.13;41.07;;;;;;;14.80;78.62;98426.56;4185732;28;20670;-84
2023/05/24 02:29:18;;;;;;;381.07;40.73;;;;;;;14.79;78.99;98424.06;4205107;28;20655;-84
2023/05/24 02:31:21;;;;;;;453.63;43.10;;;;;;;14.76;80.13;98422.53;4189622;28;20666;-84
2023/05/24 02:33:25;;;;;;;456.63;47.63;;;;;;;14.74;79.52;98427.06;4200227;28;21880;-84
2023/05/24 02:35:31;;;;;;;371.07;34.70;;;;;;;14.72;78.95;98423.72;4181429;28;20643;-84
2023/05/24 02:37:35;;;;;;;405.13;47.30;;;;;;;14.72;78.40;98433.41;4194475;28;20631;-84
2023/05/24 02:39:38;;;;;;;382.77;44.03;;;;;;;14.70;78.49;98430.03;4202303;28;20964;-85
2023/05/24 02:41:41;;;;;;;417.87;45.97;;;;;;;14.68;79.29;98426.72;4187391;28;20980;-84
2023/05/24 02:43:44;;;;;;;436.07;43.33;;;;;;;14.67;79.87;98428.53;4199405;28;20634;-84
2023/05/24 02:45:47;;;;;;;456.70;46.67;;;;;;;14.65;80.21;98424.34;4194635;28;20633;-84
2023/05/24 02:47:50;;;;;;;405.30;41.83;;;;;;;14.61;79.52;98426.38;4196793;28;22850;-85
2023/05/24 02:49:54;;;;;;;420.13;39.20;;;;;;;14.58;80.57;98424.94;4198746;28;20651;-84
2023/05/24 02:51:58;;;;;;;501.00;46.70;;;;;;;14.55;80.43;98430.44;4198759;28;20642;-85
2023/05/24 02:54:01;;;;;;;434.90;50.17;;;;;;;14.53;80.68;98427.09;4196101;28;20642;-84
2023/05/24 02:56:06;;;;;;;419.17;48.63;;;;;;;14.52;81.62;98428.03;4188915;28;20636;-84
2023/05/24 02:58:10;;;;;;;379.70;46.70;;;;;;;14.48;81.52;98423.97;4188791;28;20639;-85
2023/05/24 03:00:14;;;;;;;439.07;49.70;;;;;;;14.45;81.54;98430.31;4204382;28;20725;-84
2023/05/24 03:02:20;;;;;;;392.93;51.47;;;;;;;14.47;80.45;98423.16;4205264;28;20696;-84
2023/05/24 03:04:24;;;;;;;474.60;45.10;;;;;;;14.48;81.51;98426.59;4199952;28;20672;-84
2023/05/24 03:06:27;;;;;;;382.10;41.77;;;;;;;14.48;80.52;98423.97;4182012;28;21024;-84
2023/05/24 03:08:31;;;;;;;401.60;43.40;;;;;;;14.45;80.69;98430.31;4195913;28;21578;-85
2023/05/24 03:10:34;;;;;;;406.83;44.73;;;;;;;14.43;81.67;98426.97;4196906;28;21225;-84
2023/05/24 03:12:37;;;;;;;434.37;47.37;;;;;;;14.40;81.00;98429.00;4195818;28;20629;-84
2023/05/24 03:14:42;;;;;;;402.23;47.17;;;;;;;14.35;81.99;98421.50;4197147;28;20642;-84
2023/05/24 03:16:45;;;;;;;464.40;45.13;;;;;;;14.33;81.87;98425.19;4197631;28;21181;-84
2023/05/24 03:18:49;;;;;;;420.60;44.23;;;;;;;14.29;82.35;98421.13;4188913;28;20619;-84
2023/05/24 03:20:52;;;;;;;443.57;50.30;;;;;;;14.28;81.23;98422.94;4187946;28;20992;-84
2023/05/24 03:22:56;;;;;;;417.43;39.50;;;;;;;14.26;82.12;98418.75;4199351;28;21380;-84
2023/05/24 03:25:00;;;;;;;427.57;45.40;;;;;;;14.26;81.79;98429.25;4198968;28;20673;-84
2023/05/24 03:27:04;;;;;;;418.67;49.70;;;;;;;14.24;81.15;98418.03;4198648;28;20646;-84
2023/05/24 03:29:07;;;;;;;514.33;48.50;;;;;;;14.21;80.06;98423.53;4198257;28;20765;-84
2023/05/24 03:31:15;;;;;;;441.50;48.07;;;;;;;14.15;79.99;98416.97;4200448;28;20652;-84
2023/05/24 03:33:18;;;;;;;450.43;49.90;;;;;;;14.16;79.50;98420.41;4199517;28;20637;-84
2023/05/24 03:35:22;;;;;;;508.07;54.50;;;;;;;14.11;79.30;98419.09;4178932;28;21071;-84
2023/05/24 03:37:25;;;;;;;406.80;50.00;;;;;;;14.01;78.97;98416.34;4180940;28;20697;-84
2023/05/24 03:39:28;;;;;;;397.60;50.80;;;;;;;13.97;80.57;98419.31;4203919;28;21170;-84
2023/05/24 03:42:05;;;;;;;674.67;59.10;;;;;;;13.91;81.01;98417.97;4200204;28;20636;-84
2023/05/24 03:44:09;;;;;;;559.60;55.83;;;;;;;13.87;81.64;98416.53;4187324;28;20682;-84
2023/05/24 03:46:12;;;;;;;532.43;53.93;;;;;;;13.85;82.21;98417.63;4199646;28;21229;-84
2023/05/24 03:48:19;;;;;;;532.57;50.43;;;;;;;13.83;82.85;98422.97;4182352;28;21289;-84
2023/05/24 03:50:22;;;;;;;491.80;47.07;;;;;;;13.83;82.77;98422.97;4185161;28;20658;-84
2023/05/24 03:52:25;;;;;;;461.63;56.03;;;;;;;13.82;83.26;98416.06;4199378;28;20689;-84
2023/05/24 03:54:29;;;;;;;577.33;59.33;;;;;;;13.82;83.49;98423.09;4196451;28;21024;-84
2023/05/24 03:56:32;;;;;;;413.10;55.37;;;;;;;13.82;83.33;98418.69;4181004;28;20775;-84
2023/05/24 03:58:37;;;;;;;435.10;47.57;;;;;;;13.83;83.46;98424.75;4194355;28;20729;-84
2023/05/24 04:00:41;;;;;;;534.43;51.63;;;;;;;13.85;83.20;98415.00;4182520;28;20631;-84
2023/05/24 04:02:44;;;;;;;391.93;53.50;;;;;;;13.84;83.28;98423.81;4200468;28;20654;-84
2023/05/24 04:04:48;;;;;;;396.33;53.40;;;;;;;13.84;82.94;98415.94;4204000;28;21290;-84
2023/05/24 04:06:52;;;;;;;412.07;48.47;;;;;;;13.87;82.71;98418.31;4199805;28;20666;-84
2023/05/24 04:08:56;;;;;;;522.70;59.40;;;;;;;13.89;79.87;98414.66;4197301;28;20699;-84
2023/05/24 04:10:59;;;;;;;538.13;49.83;;;;;;;13.91;80.52;98406.66;4201857;28;20662;-84
2023/05/24 04:13:02;;;;;;;409.77;45.87;;;;;;;13.87;78.69;98407.84;4180137;28;20704;-84
2023/05/24 04:15:08;;;;;;;604.70;55.30;;;;;;;13.87;79.73;98415.72;4197990;28;20639;-84
2023/05/24 04:17:12;;;;;;;508.80;50.63;;;;;;;13.92;81.18;98419.66;4204699;28;20654;-84
2023/05/24 04:19:15;;;;;;;430.57;49.37;;;;;;;13.97;79.69;98416.69;4186743;28;20843;-84
2023/05/24 04:21:19;;;;;;;376.13;49.57;;;;;;;13.94;78.89;98412.50;4200108;28;20644;-85
2023/05/24 04:23:22;;;;;;;429.17;54.33;;;;;;;13.90;79.17;98416.28;4187195;28;20630;-84
2023/05/24 04:25:25;;;;;;;476.47;51.90;;;;;;;13.68;78.51;98403.16;4196095;28;20636;-85
2023/05/24 04:27:30;;;;;;;559.53;65.23;;;;;;;13.51;78.89;98407.16;4202385;28;20633;-84
2023/05/24 04:29:33;;;;;;;539.27;64.93;;;;;;;13.35;79.36;98409.25;4185601;28;21107;-84
2023/05/24 04:31:38;;;;;;;326.43;36.83;;;;;;;13.36;79.55;98406.50;4204192;28;20631;-84
2023/05/24 04:33:41;;;;;;;601.70;70.47;;;;;;;13.33;79.94;98408.53;4195611;28;20630;-84
2023/05/24 04:35:46;;;;;;;625.10;70.70;;;;;;;13.23;79.62;98403.16;4184603;28;20718;-84
2023/05/24 04:37:49;;;;;;;699.77;72.53;;;;;;;13.13;79.60;98409.16;4199362;28;20632;-84
2023/05/24 04:39:54;;;;;;;593.63;52.97;;;;;;;13.07;80.68;98409.63;4185557;28;20622;-84
2023/05/24 04:41:59;;;;;;;745.47;85.30;;;;;;;13.08;80.69;98408.69;4198675;28;20755;-83
2023/05/24 04:44:02;;;;;;;235.70;39.17;;;;;;;13.01;80.66;98410.06;4196779;28;21044;-84
2023/05/24 04:46:05;;;;;;;737.87;75.97;;;;;;;13.01;80.21;98415.31;4198130;28;20675;-83
2023/05/24 04:48:12;;;;;;;732.13;77.07;;;;;;;12.97;81.63;98416.47;4200822;28;20621;-83
2023/05/24 04:50:15;;;;;;;689.33;69.40;;;;;;;13.00;80.91;98426.72;4204908;28;21259;-84
2023/05/24 04:52:18;;;;;;;65.70;21.23;;;;;;;13.03;81.44;98425.66;4187073;28;20640;-83
2023/05/24 04:54:22;;;;;;;732.07;68.87;;;;;;;12.98;81.82;98415.53;4202360;28;20644;-84
2023/05/24 04:56:25;;;;;;;258.07;29.97;;;;;;;12.90;80.85;98425.72;4198968;28;20666;-83
2023/05/24 04:58:28;;;;;;;446.80;52.07;;;;;;;12.77;82.07;98419.66;4199862;28;20620;-83
2023/05/24 05:00:31;;;;;;;213.30;26.50;;;;;;;12.67;82.81;98430.06;4205035;28;20663;-83
2023/05/24 05:02:34;;;;;;;565.70;53.67;;;;;;;12.62;82.45;98427.78;4198972;28;21146;-84
2023/05/24 05:04:39;;;;;;;991.90;98.63;;;;;;;12.59;82.01;98421.94;4205822;28;20638;-83
2023/05/24 05:06:43;;;;;;;718.70;76.93;;;;;;;12.59;82.97;98424.53;4191010;28;21227;-84
2023/05/24 05:08:46;;;;;;;958.80;96.43;;;;;;;12.66;82.76;98429.22;4196375;28;20627;-85
2023/05/24 05:10:49;;;;;;;333.73;41.50;;;;;;;12.70;82.18;98439.38;4182192;28;20652;-85
2023/05/24 05:12:53;;;;;;;936.27;86.43;;;;;;;12.70;81.36;98436.75;4196331;28;20642;-85
2023/05/24 05:14:56;;;;;;;674.03;70.83;;;;;;;12.76;80.88;98444.19;4189648;28;20678;-83
2023/05/24 05:16:59;;;;;;;438.13;41.77;;;;;;;12.88;81.58;98437.25;4201466;28;20635;-83
2023/05/24 05:19:03;;;;;;;640.53;71.07;;;;;;;13.01;81.52;98443.28;4202655;28;20709;-83
2023/05/24 05:21:07;;;;;;;751.00;82.00;;;;;;;13.08;80.91;98440.09;4193180;28;20630;-83
2023/05/24 05:23:11;;;;;;;769.47;64.50;;;;;;;13.18;80.80;98441.94;4196617;28;20719;-83
2023/05/24 05:25:14;;;;;;;458.13;44.60;;;;;;;13.19;80.41;98442.78;4203291;28;20682;-84
2023/05/24 05:27:17;;;;;;;608.20;67.27;;;;;;;13.20;80.30;98439.22;4181147;28;20623;-84
2023/05/24 05:29:20;;;;;;;615.57;72.07;;;;;;;13.29;79.06;98439.38;4199238;28;20655;-84
2023/05/24 05:31:26;;;;;;;550.57;56.70;;;;;;;13.32;80.15;98446.16;4186882;28;20653;-85
2023/05/24 05:33:31;;;;;;;527.90;58.30;;;;;;;13.45;79.42;98444.31;4187231;28;20626;-84
2023/05/24 05:35:34;;;;;;;630.57;62.53;;;;;;;13.49;79.07;98438.72;4203633;28;20629;-84
2023/05/24 05:37:38;;;;;;;521.73;56.70;;;;;;;13.62;79.41;98444.75;4206637;28;20633;-84
2023/05/24 05:39:41;;;;;;;554.27;58.87;;;;;;;13.68;78.60;98437.25;4198898;28;20748;-84
2023/05/24 05:41:44;;;;;;;513.37;51.60;;;;;;;13.77;79.17;98441.78;4208472;28;20628;-85
2023/05/24 05:43:48;;;;;;;455.73;54.07;;;;;;;13.89;80.47;98450.50;4204580;28;20679;-84
2023/05/24 05:45:52;;;;;;;450.83;48.87;;;;;;;13.97;78.83;98448.97;4203128;28;20630;-84
2023/05/24 05:47:55;;;;;;;428.77;49.53;;;;;;;14.04;79.00;98451.97;4196890;28;20625;-84
2023/05/24 05:49:58;;;;;;;406.00;47.33;;;;;;;14.12;78.13;98447.84;4195257;28;20993;-85
2023/05/24 05:52:01;;;;;;;429.37;48.70;;;;;;;14.15;78.54;98447.63;4204812;28;20645;-85
2023/05/24 05:54:07;;;;;;;375.83;42.33;;;;;;;14.19;77.95;98446.41;4189744;28;20627;-84
2023/05/24 05:56:10;;;;;;;434.63;44.50;;;;;;;14.23;76.58;98448.66;4195933;28;21411;-84
2023/05/24 05:58:13;;;;;;;396.47;47.63;;;;;;;14.21;75.80;98452.38;4204429;28;20630;-85
2023/05/24 06:00:18;;;;;;;527.20;52.77;;;;;;;14.15;75.74;98448.44;4202707;28;20642;-85
2023/05/24 06:02:21;;;;;;;451.43;47.77;;;;;;;14.15;75.51;98450.25;4203577;28;20620;-84
2023/05/24 06:04:25;;;;;;;539.77;57.50;;;;;;;14.08;74.71;98441.16;4194305;28;20645;-85
2023/05/24 06:06:28;;;;;;;465.83;49.87;;;;;;;13.97;75.21;98440.28;4191407;28;20653;-84
2023/05/24 06:08:33;;;;;;;546.97;52.73;;;;;;;14.04;75.72;98450.16;4208437;28;21034;-84
2023/05/24 06:10:38;;;;;;;470.30;50.33;;;;;;;14.01;75.85;98445.19;4193085;28;20625;-84
2023/05/24 06:12:42;;;;;;;513.67;50.20;;;;;;;14.10;77.22;98439.25;4195249;28;20666;-84
2023/05/24 06:14:47;;;;;;;410.70;49.50;;;;;;;14.17;77.04;98450.94;4205125;28;20667;-84
2023/05/24 06:16:51;;;;;;;467.13;47.27;;;;;;;14.21;76.06;98447.16;4205887;28;20625;-84
2023/05/24 06:18:55;;;;;;;421.50;51.80;;;;;;;14.24;76.57;98454.78;4204887;28;20667;-84
2023/05/24 06:21:09;;;;;;;438.00;48.53;;;;;;;14.32;78.22;98460.25;4203324;28;20734;-84
2023/05/24 06:23:12;;;;;;;472.33;53.50;;;;;;;14.34;75.78;98463.59;4195091;28;20627;-85
2023/05/24 06:25:18;;;;;;;432.73;46.63;;;;;;;14.27;75.69;98454.53;4210317;28;20656;-85
2023/05/24 06:27:22;;;;;;;443.90;49.83;;;;;;;14.25;75.63;98454.66;4204390;28;21209;-84
2023/05/24 06:29:26;;;;;;;516.57;48.53;;;;;;;14.24;75.65;98460.03;4201150;28;20652;-84
2023/05/24 06:31:29;;;;;;;418.33;51.47;;;;;;;14.17;75.86;98457.00;4203737;28;20641;-85
2023/05/24 06:33:32;;;;;;;427.20;51.83;;;;;;;14.16;75.78;98454.50;4201058;28;20629;-84
2023/05/24 06:35:37;;;;;;;481.80;54.10;;;;;;;14.23;76.96;98461.78;4205045;28;20736;-84
2023/05/24 06:37:40;;;;;;;452.40;46.63;;;;;;;14.21;75.59;98466.34;4192039;28;20684;-85
2023/05/24 06:39:44;;;;;;;534.10;51.40;;;;;;;14.15;75.98;98469.41;4194600;28;20668;-89
2023/05/24 06:41:50;;;;;;;405.33;48.40;;;;;;;14.11;75.54;98467.16;4202163;28;21217;-84
2023/05/24 06:44:00;;;;;;;496.33;59.10;;;;;;;14.07;75.94;98470.13;4185225;28;20663;-84
2023/05/24 06:46:03;;;;;;;560.13;52.93;;;;;;;13.86;75.56;98464.69;4207829;28;20665;-84
2023/05/24 06:48:07;;;;;;;257.37;30.57;;;;;;;13.79;76.22;98467.91;4209157;28;20628;-84
2023/05/24 06:50:10;;;;;;;556.77;60.87;;;;;;;13.62;76.75;98468.31;4201041;28;20724;-84
2023/05/24 06:52:13;;;;;;;628.40;68.77;;;;;;;13.64;77.32;98470.84;4210283;28;20687;-84
2023/05/24 06:54:17;;;;;;;571.50;60.17;;;;;;;13.58;76.67;98466.03;4200914;28;20619;-84
2023/05/24 06:56:20;;;;;;;615.83;59.53;;;;;;;13.53;77.26;98481.25;4207154;28;20629;-84
2023/05/24 06:58:23;;;;;;;573.13;66.50;;;;;;;13.39;75.69;98482.25;4202571;28;20737;-83
2023/05/24 07:00:28;;;;;;;573.93;64.50;;;;;;;13.32;78.17;98486.31;4192299;28;21263;-82
2023/05/24 07:02:31;;;;;;;254.23;28.93;;;;;;;13.26;77.43;98475.41;4197786;28;20664;-83
2023/05/24 07:04:35;;;;;;;837.80;82.20;;;;;;;13.34;76.28;98480.94;4162665;28;20645;-83
2023/05/24 07:06:38;;;;;;;87.90;26.30;;;;;;;13.35;77.20;98487.84;4183374;28;20660;-83
2023/05/24 07:08:41;;;;;;;508.87;65.27;;;;;;;13.40;77.27;98476.09;4198656;28;21218;-84
2023/05/24 07:10:44;;;;;;;488.77;65.10;;;;;;;13.51;77.90;98488.41;4181818;28;21093;-84
2023/05/24 07:12:47;;;;;;;510.67;58.77;;;;;;;13.69;77.70;98482.63;4186741;28;20653;-83
2023/05/24 07:14:51;;;;;;;306.83;36.07;;;;;;;13.84;77.45;98495.41;4190076;28;21260;-84
2023/05/24 07:16:58;;;;;;;681.40;54.03;;;;;;;13.87;76.69;98495.19;4201611;28;20641;-83
2023/05/24 07:19:02;;;;;;;654.93;54.60;;;;;;;13.94;76.74;98496.41;4189321;28;20672;-84
2023/05/24 07:21:07;;;;;;;667.30;57.33;;;;;;;13.99;76.10;98496.91;4199131;28;20661;-84
2023/05/24 07:23:10;;;;;;;471.83;53.30;;;;;;;14.01;75.98;98505.50;4190838;28;20630;-83
2023/05/24 07:25:14;;;;;;;502.07;48.27;;;;;;;14.09;76.51;98510.19;4200883;28;20666;-83
2023/05/24 07:27:17;;;;;;;420.53;51.10;;;;;;;14.13;76.38;98509.84;4186723;28;20967;-84
2023/05/24 07:29:21;;;;;;;437.70;51.37;;;;;;;14.24;76.22;98520.38;4207491;28;20635;-84
2023/05/24 07:31:25;;;;;;;468.63;48.67;;;;;;;14.31;76.65;98525.03;4191224;28;20638;-84
2023/05/24 07:33:30;;;;;;;415.87;50.77;;;;;;;14.38;76.28;98520.97;4201903;28;21089;-84
2023/05/24 07:35:33;;;;;;;437.60;46.77;;;;;;;14.46;75.48;98528.25;4201234;28;21088;-84
2023/05/24 07:37:36;;;;;;;444.07;44.47;;;;;;;14.51;75.13;98534.84;4203592;28;20863;-84
2023/05/24 07:39:39;;;;;;;433.87;49.80;;;;;;;14.50;74.10;98532.34;4182977;28;20627;-83
2023/05/24 07:41:42;;;;;;;530.43;56.27;;;;;;;14.48;73.99;98532.44;4195759;28;20633;-84
2023/05/24 07:43:46;;;;;;;463.50;50.33;;;;;;;14.45;75.06;98535.31;4188237;28;21279;-84
2023/05/24 07:45:49;;;;;;;371.10;44.17;;;;;;;14.32;74.12;98524.06;4198817;28;20645;-85
2023/05/24 07:47:52;;;;;;;414.40;48.17;;;;;;;14.30;75.11;98525.97;4195172;28;20658;-84
2023/05/24 07:50:00;;;;;;;419.13;48.23;;;;;;;14.27;74.48;98533.25;4204063;28;20664;-85
2023/05/24 07:52:05;;;;;;;519.80;54.83;;;;;;;14.24;75.03;98523.00;4188797;28;20656;-84
2023/05/24 07:54:08;;;;;;;481.80;50.93;;;;;;;14.15;75.27;98523.69;4188502;28;20635;-85
2023/05/24 07:56:11;;;;;;;409.83;56.47;;;;;;;14.04;75.09;98513.13;4198438;28;20700;-84
2023/05/24 07:58:14;;;;;;;482.93;50.10;;;;;;;14.03;75.29;98521.94;4206297;28;20649;-84
2023/05/24 08:00:19;;;;;;;533.50;63.47;;;;;;;13.90;75.23;98515.13;4220338;28;20634;-84
2023/05/24 08:02:22;;;;;;;584.47;60.83;;;;;;;13.95;75.56;98520.84;4188928;28;20621;-85
2023/05/24 08:04:25;;;;;;;439.63;51.43;;;;;;;14.08;75.97;98525.09;4199085;28;20734;-85
2023/05/24 08:06:31;;;;;;;443.73;52.13;;;;;;;14.21;75.77;98531.94;4195628;28;20789;-85
2023/05/24 08:08:35;;;;;;;498.60;49.57;;;;;;;14.36;75.76;98543.06;4201556;28;20729;-84
2023/05/24 08:10:38;;;;;;;557.83;57.50;;;;;;;14.54;75.62;98541.63;4189589;28;20624;-84
2023/05/24 08:12:42;;;;;;;494.97;51.90;;;;;;;14.51;75.12;98534.84;4205709;28;20640;-85
2023/05/24 08:14:45;;;;;;;494.83;47.00;;;;;;;14.54;75.78;98534.59;4197779;28;20641;-85
2023/05/24 08:16:48;;;;;;;397.87;39.63;;;;;;;14.65;75.05;98547.72;4187356;28;20651;-84
2023/05/24 08:18:51;;;;;;;429.27;51.77;;;;;;;14.74;75.03;98541.78;4207537;28;20645;-84
2023/05/24 08:20:57;;;;;;;387.23;44.30;;;;;;;14.70;74.66;98541.19;4206125;28;21236;-85
2023/05/24 08:23:02;;;;;;;506.80;46.50;;;;;;;14.56;74.42;98545.00;4197249;28;21520;-85
2023/05/24 08:25:06;;;;;;;394.67;40.77;;;;;;;14.56;74.37;98543.19;4200001;28;20980;-85
2023/05/24 08:27:09;;;;;;;406.30;48.33;;;;;;;14.56;73.21;98532.69;4186961;28;20641;-84
2023/05/24 08:29:12;;;;;;;460.47;49.30;;;;;;;14.64;73.75;98540.78;4197701;28;20730;-85
2023/05/24 08:31:15;;;;;;;478.87;52.57;;;;;;;14.60;73.87;98540.22;4203609;28;20621;-85
2023/05/24 08:33:21;;;;;;;420.83;51.10;;;;;;;14.57;74.09;98536.13;4203990;28;21407;-85
2023/05/24 08:35:24;;;;;;;448.97;56.27;;;;;;;14.47;74.11;98545.69;4201715;28;20641;-85
2023/05/24 08:37:29;;;;;;;472.20;55.37;;;;;;;14.25;73.96;98532.53;4201473;28;20648;-84
2023/05/24 08:39:34;;;;;;;444.60;50.47;;;;;;;14.17;75.18;98534.88;4201912;28;20726;-84
2023/05/24 08:41:37;;;;;;;439.47;49.70;;;;;;;14.24;74.66;98538.75;4195080;28;20715;-85
2023/05/24 08:43:42;;;;;;;481.93;57.27;;;;;;;14.23;75.27;98534.44;4204812;28;20724;-85
2023/05/24 08:45:45;;;;;;;485.63;52.37;;;;;;;14.26;76.04;98534.19;4198904;28;20642;-84
2023/05/24 08:47:50;;;;;;;379.53;46.17;;;;;;;14.29;76.30;98539.22;4207547;28;20636;-84
2023/05/24 08:49:54;;;;;;;372.43;43.67;;;;;;;14.44;77.15;98546.75;4193625;28;20641;-84
2023/05/24 08:51:57;;;;;;;408.67;47.70;;;;;;;14.61;76.82;98557.66;4201729;28;20641;-84
2023/05/24 08:54:01;;;;;;;405.83;50.37;;;;;;;14.63;75.79;98550.47;4201009;28;20653;-84
2023/05/24 08:56:07;;;;;;;446.87;45.20;;;;;;;14.70;76.37;98556.94;4185666;28;20666;-84
2023/05/24 08:58:11;;;;;;;426.43;49.87;;;;;;;14.67;74.82;98556.31;4210936;28;20649;-85
2023/05/24 09:00:15;;;;;;;423.23;47.20;;;;;;;14.78;77.55;98558.97;4202099;28;21036;-85
2023/05/24 09:02:19;;;;;;;416.30;49.47;;;;;;;14.89;77.03;98562.41;4197974;28;20629;-85
2023/05/24 09:04:22;;;;;;;404.83;44.60;;;;;;;14.96;76.50;98562.75;4206470;28;20638;-85
2023/05/24 09:06:26;;;;;;;447.57;47.40;;;;;;;15.02;75.09;98570.16;4203338;28;20755;-85
2023/05/24 09:08:29;;;;;;;386.10;41.17;;;;;;;15.04;74.91;98561.22;4202428;28;20709;-85
2023/05/24 09:10:33;;;;;;;445.40;46.10;;;;;;;15.10;75.20;98563.38;4200035;28;20748;-85
2023/05/24 09:12:58;;;;;;;456.80;51.60;;;;;;;15.12;73.08;98564.06;4201698;28;20757;-85
2023/05/24 09:15:02;;;;;;;389.97;42.87;;;;;;;15.13;73.30;98568.38;4196008;28;20728;-85
2023/05/24 09:17:05;;;;;;;378.10;44.93;;;;;;;15.14;73.03;98567.44;4198998;28;21278;-85
2023/05/24 09:19:08;;;;;;;496.90;53.80;;;;;;;15.23;74.84;98566.72;4199111;28;20625;-84
2023/05/24 09:21:12;;;;;;;387.23;45.33;;;;;;;15.12;71.76;98558.81;4202020;28;20736;-83
2023/05/24 09:23:15;;;;;;;403.90;39.77;;;;;;;15.00;72.29;98565.03;4183532;28;21293;-84
2023/05/24 09:25:20;;;;;;;453.77;53.47;;;;;;;15.07;74.64;98557.53;4201585;28;21056;-87